高雄終端管制區 - 高雄雷達席

METAR RCKH 240630Z 27007KT 230V320 9999 FEW010CB FEW012 SCT035 BKN120 33/22 Q1008 NOSIG RMK CB NE A2977=

站台狀態:Online
最後更新:2020-09-24 15:00:02